createdAt,value
2022-10-30T00:01:27.986Z,4.77
2022-10-30T00:03:56.872Z,5.70
2022-10-30T00:06:25.581Z,5.60
2022-10-30T00:08:54.210Z,4.87
2022-10-30T00:11:24.325Z,5.33
2022-10-30T00:13:52.980Z,5.30
2022-10-30T00:16:21.643Z,5.60
2022-10-30T00:18:50.359Z,5.63
2022-10-30T00:21:20.496Z,4.83
2022-10-30T00:23:51.358Z,5.20
2022-10-30T00:26:25.128Z,5.20
2022-10-30T00:28:55.823Z,4.97
2022-10-30T00:31:25.495Z,5.73
2022-10-30T00:33:56.144Z,4.80
2022-10-30T00:36:26.236Z,4.63
2022-10-30T00:38:54.852Z,4.97
2022-10-30T00:41:26.749Z,5.13
2022-10-30T00:43:57.260Z,5.23
2022-10-30T00:46:32.785Z,5.10
2022-10-30T00:49:07.224Z,4.70
2022-10-30T00:51:40.608Z,4.90
2022-10-30T00:54:11.117Z,4.80
2022-10-30T00:56:41.484Z,4.73
2022-10-30T00:59:15.084Z,5.30
2022-10-30T01:01:47.296Z,4.87
2022-10-30T01:04:18.532Z,4.80
2022-10-30T01:06:52.153Z,4.60
2022-10-30T01:09:21.664Z,4.90
2022-10-30T01:11:51.721Z,5.33
2022-10-30T01:14:23.249Z,4.83
2022-10-30T01:17:18.192Z,4.87
2022-10-30T01:22:58.073Z,5.07
2022-10-30T01:25:49.801Z,4.93
2022-10-30T01:28:46.134Z,4.27
2022-10-30T01:31:36.894Z,4.80
2022-10-30T01:34:20.039Z,5.30
2022-10-30T01:37:00.943Z,4.63
2022-10-30T01:39:35.300Z,5.30
2022-10-30T01:42:11.875Z,4.90
2022-10-30T01:44:42.574Z,4.63
2022-10-30T01:47:37.910Z,4.63
2022-10-30T01:50:29.834Z,4.77
2022-10-30T01:53:10.618Z,5.10
2022-10-30T01:55:55.919Z,4.70
2022-10-30T01:58:36.040Z,4.60
2022-10-30T02:01:07.358Z,4.70
2022-10-30T02:03:36.142Z,4.63
2022-10-30T02:06:05.303Z,4.30
2022-10-30T02:08:33.971Z,4.37
2022-10-30T02:11:03.333Z,4.73
2022-10-30T02:13:39.498Z,3.80
2022-10-30T02:16:12.102Z,4.00
2022-10-30T02:21:14.432Z,3.80
2022-10-30T02:23:45.409Z,4.00
2022-10-30T02:26:14.930Z,4.20
2022-10-30T02:28:43.986Z,4.20
2022-10-30T02:31:12.673Z,3.67
2022-10-30T02:33:47.345Z,3.40
2022-10-30T02:36:17.530Z,3.63
2022-10-30T02:38:46.466Z,4.03
2022-10-30T02:41:15.230Z,3.47
2022-10-30T02:43:44.667Z,3.57
2022-10-30T02:46:13.321Z,3.73
2022-10-30T02:48:42.052Z,3.33
2022-10-30T02:51:10.828Z,3.17
2022-10-30T02:53:42.459Z,3.70
2022-10-30T02:56:14.723Z,3.00
2022-10-30T02:58:44.514Z,3.00
2022-10-30T03:01:16.862Z,3.53
2022-10-30T03:03:46.941Z,3.27
2022-10-30T03:06:18.288Z,3.40
2022-10-30T03:08:48.406Z,4.00
2022-10-30T03:11:20.563Z,2.90
2022-10-30T03:13:50.093Z,3.40
2022-10-30T03:16:21.524Z,3.80
2022-10-30T03:18:50.794Z,3.40
2022-10-30T03:21:22.516Z,3.63
2022-10-30T03:23:56.451Z,3.60
2022-10-30T03:26:25.888Z,3.00
2022-10-30T03:29:04.818Z,3.30
2022-10-30T03:31:34.958Z,3.60
2022-10-30T03:34:15.558Z,3.43
2022-10-30T03:36:44.298Z,3.30
2022-10-30T03:39:15.093Z,3.70
2022-10-30T03:41:45.785Z,3.40
2022-10-30T03:44:14.710Z,3.97
2022-10-30T03:46:43.422Z,4.13
2022-10-30T03:49:25.744Z,3.40
2022-10-30T03:51:55.991Z,3.33
2022-10-30T03:54:28.301Z,3.53
2022-10-30T03:56:57.011Z,3.57
2022-10-30T03:59:29.272Z,3.30
2022-10-30T04:02:24.007Z,3.13
2022-10-30T04:04:52.714Z,3.13
2022-10-30T04:07:21.338Z,3.47
2022-10-30T04:09:51.408Z,3.30
2022-10-30T04:12:20.119Z,2.97
2022-10-30T04:14:48.829Z,3.43
2022-10-30T04:17:17.465Z,3.57
2022-10-30T04:19:46.119Z,3.27
2022-10-30T04:22:15.461Z,3.40
2022-10-30T04:24:44.851Z,3.17
2022-10-30T04:27:15.594Z,3.30
2022-10-30T04:29:44.268Z,3.33
2022-10-30T04:32:12.982Z,3.00
2022-10-30T04:34:41.864Z,3.23
2022-10-30T04:37:10.955Z,2.93
2022-10-30T04:39:43.749Z,3.93
2022-10-30T04:42:20.820Z,2.77
2022-10-30T04:44:49.432Z,3.30
2022-10-30T04:47:18.161Z,3.13
2022-10-30T04:49:47.365Z,3.40
2022-10-30T04:52:18.722Z,2.83
2022-10-30T04:54:48.518Z,3.17
2022-10-30T04:57:17.935Z,3.30
2022-10-30T04:59:48.104Z,3.40
2022-10-30T05:02:19.482Z,2.77
2022-10-30T05:04:49.366Z,3.30
2022-10-30T05:07:19.991Z,2.93
2022-10-30T05:09:50.018Z,3.60
2022-10-30T05:12:19.601Z,3.13
2022-10-30T05:15:15.120Z,3.10
2022-10-30T05:17:44.111Z,3.50
2022-10-30T05:20:16.257Z,3.13
2022-10-30T05:23:20.810Z,2.90
2022-10-30T05:25:51.716Z,3.07
2022-10-30T05:28:23.848Z,2.33
2022-10-30T05:31:00.254Z,3.00
2022-10-30T05:33:51.733Z,3.07
2022-10-30T05:36:20.816Z,2.60
2022-10-30T05:38:50.032Z,2.80
2022-10-30T05:41:47.251Z,2.47
2022-10-30T05:44:40.457Z,2.73
2022-10-30T05:47:13.300Z,2.80
2022-10-30T05:50:14.785Z,2.53
2022-10-30T05:52:58.102Z,3.10
2022-10-30T05:55:27.540Z,2.50
2022-10-30T05:58:11.302Z,2.77
2022-10-30T06:00:44.530Z,2.60
2022-10-30T06:03:20.189Z,2.40
2022-10-30T06:05:52.040Z,2.83
2022-10-30T06:08:21.338Z,2.20
2022-10-30T06:10:56.949Z,2.50
2022-10-30T06:13:31.460Z,2.53
2022-10-30T06:16:06.489Z,2.40
2022-10-30T06:18:55.588Z,2.40
2022-10-30T06:21:25.728Z,2.63
2022-10-30T06:24:20.748Z,2.47
2022-10-30T06:27:20.327Z,2.50
2022-10-30T06:29:50.178Z,2.10
2022-10-30T06:32:23.760Z,2.60
2022-10-30T06:34:59.243Z,2.37
2022-10-30T06:37:28.473Z,2.50
2022-10-30T06:39:59.771Z,2.67
2022-10-30T06:42:51.193Z,2.40
2022-10-30T06:45:43.034Z,2.50
2022-10-30T06:48:12.064Z,2.73
2022-10-30T06:50:46.158Z,2.63
2022-10-30T06:53:14.964Z,4.43
2022-10-30T06:55:44.261Z,4.30
2022-10-30T06:58:43.943Z,3.13
2022-10-30T07:01:23.230Z,3.10
2022-10-30T07:04:03.042Z,3.07
2022-10-30T07:06:33.195Z,4.70
2022-10-30T07:09:02.613Z,3.50
2022-10-30T07:11:31.821Z,2.73
2022-10-30T07:14:20.801Z,3.23
2022-10-30T07:16:57.235Z,3.03
2022-10-30T07:19:28.588Z,2.53
2022-10-30T07:22:08.073Z,2.47
2022-10-30T07:24:42.764Z,2.73
2022-10-30T07:27:44.839Z,2.70
2022-10-30T07:30:33.817Z,2.67
2022-10-30T07:33:23.297Z,3.20
2022-10-30T07:36:03.200Z,2.90
2022-10-30T07:39:09.772Z,4.60
2022-10-30T07:41:49.778Z,3.90
2022-10-30T07:44:39.541Z,4.20
2022-10-30T07:47:34.565Z,4.83
2022-10-30T07:50:14.407Z,5.90
2022-10-30T07:52:43.248Z,4.60
2022-10-30T07:55:17.299Z,4.60
2022-10-30T07:57:46.324Z,4.50
2022-10-30T08:00:38.412Z,7.10
2022-10-30T08:03:17.575Z,5.30
2022-10-30T08:05:58.402Z,4.80
2022-10-30T08:08:39.070Z,4.80
2022-10-30T08:11:26.787Z,5.30
2022-10-30T08:13:56.448Z,5.37
2022-10-30T08:16:25.676Z,5.17
2022-10-30T08:18:55.491Z,4.80
2022-10-30T08:21:29.353Z,5.37
2022-10-30T08:24:01.719Z,4.07
2022-10-30T08:26:49.375Z,4.07
2022-10-30T08:29:23.296Z,3.90
2022-10-30T08:31:55.999Z,3.47
2022-10-30T08:34:47.585Z,3.03
2022-10-30T08:37:35.377Z,3.60
2022-10-30T08:40:09.799Z,3.57
2022-10-30T08:42:55.224Z,3.70
2022-10-30T08:45:31.258Z,3.43
2022-10-30T08:48:17.136Z,3.93
2022-10-30T08:50:51.314Z,3.93
2022-10-30T08:53:36.871Z,3.40
2022-10-30T08:56:20.257Z,3.20
2022-10-30T08:59:23.785Z,3.50
2022-10-30T09:01:58.096Z,2.80
2022-10-30T09:04:50.633Z,3.40
2022-10-30T09:07:46.376Z,3.50
2022-10-30T09:10:39.155Z,3.27
2022-10-30T09:13:11.960Z,3.23
2022-10-30T09:15:52.694Z,3.47
2022-10-30T09:19:39.029Z,3.87
2022-10-30T09:27:53.451Z,2.93
2022-10-30T09:30:28.811Z,3.30
2022-10-30T09:33:14.871Z,3.00
2022-10-30T09:36:44.434Z,3.77
2022-10-30T09:39:24.092Z,4.70
2022-10-30T09:42:44.323Z,4.20
2022-10-30T09:45:51.501Z,4.53
2022-10-30T09:49:02.881Z,5.13
2022-10-30T09:52:05.174Z,4.40
2022-10-30T09:54:54.089Z,3.97
2022-10-30T09:57:45.791Z,4.13
2022-10-30T10:01:46.969Z,3.40
2022-10-30T10:05:17.905Z,3.60
2022-10-30T10:09:43.278Z,3.10
2022-10-30T10:13:43.707Z,3.00
2022-10-30T10:21:00.000Z,7.13
2022-10-30T10:23:49.572Z,3.33
2022-10-30T10:26:48.131Z,2.90
2022-10-30T10:29:43.351Z,2.30
2022-10-30T10:33:15.492Z,2.83
2022-10-30T10:36:32.566Z,3.07
2022-10-30T10:39:40.850Z,2.70
2022-10-30T10:42:29.553Z,3.07
2022-10-30T10:45:32.846Z,3.17
2022-10-30T10:52:27.935Z,2.93
2022-10-30T10:55:06.354Z,3.13
2022-10-30T10:57:43.779Z,3.27
2022-10-30T11:00:21.591Z,2.90
2022-10-30T11:03:05.394Z,2.63
2022-10-30T11:06:29.698Z,2.40
2022-10-30T11:09:32.241Z,2.93
2022-10-30T11:12:15.283Z,2.77
2022-10-30T11:14:48.855Z,3.03
2022-10-30T11:17:54.645Z,3.13
2022-10-30T11:21:06.901Z,3.10
2022-10-30T11:23:48.965Z,2.53
2022-10-30T11:26:57.186Z,2.90
2022-10-30T11:29:37.389Z,6.77
2022-10-30T11:32:19.603Z,4.03
2022-10-30T11:40:32.982Z,3.50
2022-10-30T11:43:06.412Z,3.00
2022-10-30T11:45:40.932Z,3.43
2022-10-30T11:48:23.236Z,3.33
2022-10-30T11:50:56.432Z,3.67
2022-10-30T11:58:25.223Z,3.63
2022-10-30T12:05:44.897Z,8.37
2022-10-30T12:09:41.752Z,5.93
2022-10-30T12:12:16.666Z,5.73
2022-10-30T12:15:11.404Z,6.17
2022-10-30T12:18:21.405Z,4.03
2022-10-30T12:20:59.073Z,3.67
2022-10-30T12:28:22.988Z,4.00
2022-10-30T12:31:00.095Z,3.97
2022-10-30T12:33:36.567Z,6.13
2022-10-30T12:36:12.395Z,3.80
2022-10-30T12:38:51.745Z,6.00
2022-10-30T12:41:26.498Z,4.50
2022-10-30T12:44:06.051Z,5.03
2022-10-30T12:46:47.246Z,3.87
2022-10-30T12:49:30.628Z,3.13
2022-10-30T12:52:20.662Z,5.33
2022-10-30T12:54:56.275Z,4.47
2022-10-30T12:57:30.624Z,4.77
2022-10-30T13:00:06.256Z,4.30
2022-10-30T13:02:47.743Z,3.93
2022-10-30T13:06:54.389Z,3.57
2022-10-30T13:09:34.092Z,4.90
2022-10-30T13:12:10.796Z,4.20
2022-10-30T13:15:38.651Z,5.90
2022-10-30T13:18:18.896Z,5.43
2022-10-30T13:21:13.668Z,4.70
2022-10-30T13:23:53.255Z,5.03
2022-10-30T13:26:35.276Z,4.90
2022-10-30T13:29:18.167Z,4.77
2022-10-30T13:32:13.975Z,4.57
2022-10-30T13:34:58.098Z,5.17
2022-10-30T13:37:38.115Z,4.40
2022-10-30T13:40:27.387Z,4.63
2022-10-30T13:43:15.705Z,4.77
2022-10-30T13:46:24.735Z,4.00
2022-10-30T13:49:26.530Z,3.93
2022-10-30T13:52:23.498Z,4.20
2022-10-30T14:00:00.123Z,4.57
2022-10-30T14:02:49.616Z,4.23
2022-10-30T14:05:39.116Z,4.03
2022-10-30T14:08:22.239Z,4.80
2022-10-30T14:15:45.511Z,4.03
2022-10-30T14:22:33.013Z,4.50
2022-10-30T14:25:14.780Z,4.20
2022-10-30T14:27:43.911Z,4.67
2022-10-30T14:30:22.252Z,4.30
2022-10-30T14:32:53.338Z,4.10
2022-10-30T14:36:46.799Z,4.27
2022-10-30T14:39:31.857Z,4.80
2022-10-30T14:42:22.243Z,4.70
2022-10-30T14:45:17.075Z,4.57
2022-10-30T14:48:00.948Z,4.37
2022-10-30T14:51:45.600Z,4.60
2022-10-30T14:54:26.276Z,4.50
2022-10-30T14:56:55.652Z,4.90
2022-10-30T14:59:35.143Z,5.77
2022-10-30T15:07:25.870Z,4.70
2022-10-30T15:10:32.798Z,5.30
2022-10-30T15:13:16.514Z,5.30
2022-10-30T15:18:55.940Z,5.00
2022-10-30T15:21:29.668Z,7.33
2022-10-30T15:24:02.523Z,5.17
2022-10-30T15:26:37.845Z,5.07
2022-10-30T15:29:13.664Z,4.37
2022-10-30T15:31:42.709Z,4.97
2022-10-30T15:34:24.133Z,4.23
2022-10-30T15:36:53.186Z,4.70
2022-10-30T15:39:21.914Z,5.20
2022-10-30T15:42:01.147Z,5.07
2022-10-30T15:44:34.565Z,5.00
2022-10-30T15:47:13.771Z,4.93
2022-10-30T15:49:51.585Z,6.20
2022-10-30T15:52:24.736Z,5.50
2022-10-30T15:55:00.898Z,5.00
2022-10-30T15:58:02.996Z,5.30
2022-10-30T16:00:27.193Z,5.10
2022-10-30T16:03:08.877Z,5.57
2022-10-30T16:05:40.106Z,5.07
2022-10-30T16:08:16.887Z,5.67
2022-10-30T16:10:47.636Z,6.47
2022-10-30T16:13:23.373Z,9.23
2022-10-30T16:15:53.502Z,8.00
2022-10-30T16:18:27.507Z,6.23
2022-10-30T16:21:03.778Z,5.90
2022-10-30T16:23:39.946Z,6.50
2022-10-30T16:26:33.988Z,6.33
2022-10-30T16:29:22.118Z,6.07
2022-10-30T16:31:56.253Z,6.57
2022-10-30T16:34:32.225Z,7.47
2022-10-30T16:37:05.504Z,6.53
2022-10-30T16:39:36.224Z,7.80
2022-10-30T16:42:05.698Z,8.83
2022-10-30T16:44:37.162Z,10.33
2022-10-30T16:47:23.276Z,10.63
2022-10-30T16:49:58.814Z,12.07
2022-10-30T16:52:35.711Z,11.93
2022-10-30T16:55:11.108Z,13.57
2022-10-30T16:57:47.096Z,12.87
2022-10-30T17:00:25.956Z,12.37
2022-10-30T17:03:00.453Z,12.93
2022-10-30T17:05:32.780Z,13.17
2022-10-30T17:08:09.831Z,13.03
2022-10-30T17:10:57.465Z,12.80
2022-10-30T17:14:04.739Z,14.00
2022-10-30T17:16:44.183Z,18.63
2022-10-30T17:19:48.396Z,21.10
2022-10-30T17:22:22.110Z,37.20
2022-10-30T17:24:54.096Z,24.03
2022-10-30T17:27:51.510Z,18.57
2022-10-30T17:30:38.013Z,17.17
2022-10-30T17:33:28.049Z,14.63
2022-10-30T17:36:00.366Z,12.93
2022-10-30T17:38:29.912Z,13.57
2022-10-30T17:41:01.686Z,12.90
2022-10-30T17:43:36.317Z,13.60
2022-10-30T17:46:06.739Z,11.17
2022-10-30T17:48:44.051Z,10.87
2022-10-30T17:51:19.351Z,11.27
2022-10-30T17:54:26.342Z,11.00
2022-10-30T17:56:58.641Z,11.43
2022-10-30T17:59:27.233Z,12.17
2022-10-30T18:01:55.945Z,12.80
2022-10-30T18:04:24.823Z,12.70
2022-10-30T18:06:56.197Z,11.57
2022-10-30T18:09:30.411Z,12.20
2022-10-30T18:12:00.614Z,11.93
2022-10-30T18:14:29.723Z,11.50
2022-10-30T18:16:58.634Z,12.13
2022-10-30T18:19:27.409Z,12.93
2022-10-30T18:21:56.531Z,14.13
2022-10-30T18:24:25.701Z,13.20
2022-10-30T18:26:55.060Z,12.90
2022-10-30T18:29:26.257Z,13.53
2022-10-30T18:31:57.316Z,12.57
2022-10-30T18:34:27.382Z,13.23
2022-10-30T18:36:58.381Z,12.33
2022-10-30T18:39:27.465Z,11.93
2022-10-30T18:41:56.576Z,11.73
2022-10-30T18:44:27.035Z,12.43
2022-10-30T18:47:02.486Z,12.07
2022-10-30T18:49:33.492Z,13.50
2022-10-30T18:52:03.562Z,12.53
2022-10-30T18:54:33.275Z,13.47
2022-10-30T18:57:02.015Z,15.93
2022-10-30T18:59:32.124Z,14.87
2022-10-30T19:02:02.230Z,14.43
2022-10-30T19:04:31.145Z,13.47
2022-10-30T19:07:00.477Z,14.50
2022-10-30T19:09:29.247Z,14.33
2022-10-30T19:11:58.002Z,18.17
2022-10-30T19:14:28.159Z,16.57
2022-10-30T19:16:58.420Z,13.20
2022-10-30T19:19:27.076Z,13.87
2022-10-30T19:21:55.839Z,13.03
2022-10-30T19:24:24.534Z,12.67
2022-10-30T19:26:53.525Z,15.13
2022-10-30T19:29:22.258Z,15.17
2022-10-30T19:31:50.866Z,13.10
2022-10-30T19:34:21.153Z,13.43
2022-10-30T19:41:55.662Z,20.20
2022-10-30T19:44:23.919Z,11.17
2022-10-30T19:46:54.603Z,12.43
2022-10-30T19:49:23.873Z,12.53
2022-10-30T19:51:52.778Z,11.60
2022-10-30T19:54:23.761Z,11.20
2022-10-30T19:56:53.158Z,11.20
2022-10-30T20:04:20.414Z,11.30
2022-10-30T20:06:49.197Z,11.53
2022-10-30T20:09:17.833Z,12.20
2022-10-30T20:11:47.185Z,12.33
2022-10-30T20:14:15.735Z,12.40
2022-10-30T20:16:43.898Z,12.40
2022-10-30T20:19:42.929Z,10.57
2022-10-30T20:24:49.488Z,11.63
2022-10-30T20:27:17.037Z,12.40
2022-10-30T20:29:44.410Z,12.27
2022-10-30T20:32:12.232Z,13.73
2022-10-30T20:34:39.751Z,15.10
2022-10-30T20:37:09.823Z,11.63
2022-10-30T20:39:38.885Z,8.87
2022-10-30T20:42:12.649Z,8.67
2022-10-30T20:44:41.713Z,9.47
2022-10-30T20:47:10.672Z,9.40
2022-10-30T20:49:39.480Z,7.80
2022-10-30T20:52:08.197Z,7.67
2022-10-30T20:54:36.865Z,7.27
2022-10-30T20:57:05.702Z,8.20
2022-10-30T20:59:36.028Z,6.97
2022-10-30T21:02:05.151Z,6.80
2022-10-30T21:04:34.016Z,6.53
2022-10-30T21:07:02.747Z,6.60
2022-10-30T21:09:31.516Z,7.67
2022-10-30T21:12:00.225Z,6.87
2022-10-30T21:14:28.826Z,6.30
2022-10-30T21:16:58.890Z,6.20
2022-10-30T21:19:27.579Z,6.57
2022-10-30T21:21:56.154Z,6.97
2022-10-30T21:24:24.820Z,7.93
2022-10-30T21:26:53.402Z,7.63
2022-10-30T21:29:23.258Z,7.93
2022-10-30T21:31:52.202Z,9.90
2022-10-30T21:34:22.181Z,8.20
2022-10-30T21:36:50.786Z,8.73
2022-10-30T21:39:19.471Z,8.00
2022-10-30T21:41:48.366Z,7.30
2022-10-30T21:44:17.135Z,7.40
2022-10-30T21:46:45.848Z,8.03
2022-10-30T21:49:16.503Z,8.00
2022-10-30T21:51:48.667Z,6.77
2022-10-30T21:54:18.297Z,7.23
2022-10-30T21:56:47.944Z,7.00
2022-10-30T21:59:17.011Z,6.27
2022-10-30T22:01:46.596Z,6.63
2022-10-30T22:04:15.571Z,6.57
2022-10-30T22:06:46.678Z,6.67
2022-10-30T22:09:18.651Z,5.90
2022-10-30T22:11:47.343Z,5.77
2022-10-30T22:14:15.898Z,4.93
2022-10-30T22:16:45.285Z,4.97
2022-10-30T22:19:13.959Z,4.50
2022-10-30T22:21:42.668Z,4.70
2022-10-30T22:24:13.788Z,5.50
2022-10-30T22:26:42.386Z,5.87
2022-10-30T22:29:11.051Z,6.07
2022-10-30T22:31:39.692Z,7.23
2022-10-30T22:34:08.304Z,7.37
2022-10-30T22:36:37.016Z,7.20
2022-10-30T22:39:09.910Z,6.60
2022-10-30T22:41:41.025Z,5.70
2022-10-30T22:44:15.123Z,5.77
2022-10-30T22:46:43.798Z,5.33
2022-10-30T22:49:12.389Z,4.53
2022-10-30T22:51:41.470Z,4.43
2022-10-30T22:54:13.366Z,4.27
2022-10-30T22:56:43.990Z,4.40
2022-10-30T22:59:14.864Z,5.43
2022-10-30T23:01:44.289Z,4.83
2022-10-30T23:04:16.130Z,4.73
2022-10-30T23:06:46.036Z,4.47
2022-10-30T23:09:19.603Z,3.80
2022-10-30T23:11:50.328Z,3.23
2022-10-30T23:14:19.084Z,3.80
2022-10-30T23:16:47.852Z,3.77
2022-10-30T23:19:16.544Z,4.30
2022-10-30T23:21:45.238Z,4.10
2022-10-30T23:24:15.805Z,3.60
2022-10-30T23:26:44.417Z,3.93
2022-10-30T23:29:14.491Z,3.90
2022-10-30T23:31:44.045Z,3.57
2022-10-30T23:34:17.102Z,3.33
2022-10-30T23:36:46.400Z,4.00
2022-10-30T23:39:18.254Z,3.30
2022-10-30T23:41:47.369Z,3.60
2022-10-30T23:44:18.015Z,3.57
2022-10-30T23:46:46.763Z,3.30
2022-10-30T23:49:15.445Z,3.37
2022-10-30T23:51:44.045Z,3.10
2022-10-30T23:54:12.882Z,3.50
2022-10-30T23:56:42.599Z,3.37
2022-10-30T23:59:11.703Z,3.20
